Time;durP1;ratioP1;P1;durP2;ratioP2;P2;SDS_P1;SDS_P2;PMS_P1;PMS_P2;Temp;Humidity;BMP_temperature;BMP_pressure;BME280_temperature;BME280_humidity;BME280_pressure;Samples;Min_cycle;Max_cycle;Signal;HPM_P1;HPM_P2
2021/11/08 00:00:05;;;;;;;;;;;;;;;5.65;100.00;100524.81;5091898;28;19931;-73
2021/11/08 00:02:33;;;;;;;;;;;;;;;5.67;100.00;100529.13;5092206;28;20016;-73
2021/11/08 00:05:00;;;;;;;;;;;;;;;5.67;100.00;100530.97;5092273;28;19924;-73
2021/11/08 00:07:27;;;;;;;;;;;;;;;5.66;100.00;100527.41;5092250;28;20581;-73
2021/11/08 00:09:54;;;;;;;;;;;;;;;5.67;100.00;100537.22;5092028;28;19950;-74
2021/11/08 00:12:22;;;;;;;;;;;;;;;5.69;100.00;100534.41;5092215;28;20306;-74
2021/11/08 00:14:48;;;;;;;;;;;;;;;5.69;100.00;100537.13;5091869;28;20022;-73
2021/11/08 00:17:29;;;;;;;;;;;;;;;5.69;100.00;100537.13;5091063;28;20484;-74
2021/11/08 00:20:02;;;;;;;;;;;;;;;5.71;100.00;100537.91;5091719;28;19924;-74
2021/11/08 00:22:29;;;;;;;;;;;;;;;5.70;100.00;100544.25;5091945;28;20365;-73
2021/11/08 00:24:56;;;;;;;;;;;;;;;5.67;100.00;100533.69;5091707;28;20023;-74
2021/11/08 00:27:22;;;;;;;;;;;;;;;5.69;100.00;100537.13;5091949;28;19924;-74
2021/11/08 00:29:49;;;;;;;;;;;;;;;5.68;100.00;100541.66;5091510;28;20300;-73
2021/11/08 00:32:16;;;;;;;;;;;;;;;5.71;100.00;100551.38;5091738;28;19977;-73
2021/11/08 00:34:44;;;;;;;;;;;;;;;5.74;100.00;100558.38;5091595;28;19967;-74
2021/11/08 00:37:12;;;;;;;;;;;;;;;5.73;100.00;100554.81;5091414;28;19928;-74
2021/11/08 00:39:38;;;;;;;;;;;;;;;5.73;100.00;100562.88;5091642;28;19935;-73
2021/11/08 00:42:05;;;;;;;;;;;;;;;5.75;100.00;100563.66;5091406;28;19958;-74
2021/11/08 00:44:31;;;;;;;;;;;;;;;5.76;100.00;100562.72;5091557;28;20409;-73
2021/11/08 00:46:58;;;;;;;;;;;;;;;5.78;100.00;100568.84;5091381;28;20301;-74
2021/11/08 00:49:25;;;;;;;;;;;;;;;5.81;100.00;100574.06;5091431;28;19928;-73
2021/11/08 00:51:51;;;;;;;;;;;;;;;5.81;100.00;100566.00;5091294;28;19976;-74
2021/11/08 00:54:19;;;;;;;;;;;;;;;5.83;100.00;100580.22;5090932;28;20465;-74
2021/11/08 00:56:47;;;;;;;;;;;;;;;5.85;100.00;100581.00;5091271;28;20022;-72
2021/11/08 00:59:16;;;;;;;;;;;;;;;5.89;100.00;100583.47;5091181;28;19955;-74
2021/11/08 01:01:43;;;;;;;;;;;;;;;5.91;100.00;100587.81;5091067;28;19924;-74
2021/11/08 01:04:10;;;;;;;;;;;;;;;5.94;100.00;100594.81;5097065;28;19946;-73
2021/11/08 01:06:36;;;;;;;;;;;;;;;5.94;100.00;100590.28;5091271;28;19928;-73
2021/11/08 01:09:03;;;;;;;;;;;;;;;5.98;100.00;100585.63;5090979;28;19950;-74
2021/11/08 01:11:30;;;;;;;;;;;;;;;6.00;100.00;100591.78;5090792;28;20404;-74
2021/11/08 01:13:57;;;;;;;;;;;;;;;6.02;100.00;100590.69;5091044;28;20018;-73
2021/11/08 01:16:25;;;;;;;;;;;;;;;6.06;100.00;100591.38;5090775;28;20368;-72
2021/11/08 01:18:53;;;;;;;;;;;;;;;6.09;100.00;100591.16;5091102;28;19930;-73
2021/11/08 01:21:19;;;;;;;;;;;;;;;6.11;100.00;100594.63;5090897;28;20463;-74
2021/11/08 01:23:45;;;;;;;;;;;;;;;6.14;100.00;100593.56;5090879;28;20031;-74
2021/11/08 01:26:14;;;;;;;;;;;;;;;6.15;100.00;100593.47;5090811;28;20270;-73
2021/11/08 01:28:45;;;;;;;;;;;;;;;6.17;100.00;100594.25;5090700;28;19928;-74
2021/11/08 01:31:12;;;;;;;;;;;;;;;6.20;100.00;100612.06;5090890;28;19969;-73
2021/11/08 01:33:41;;;;;;;;;;;;;;;6.19;100.00;100608.47;5090641;28;19931;-73
2021/11/08 01:36:13;;;;;;;;;;;;;;;6.19;100.00;100611.19;5090717;28;20003;-73
2021/11/08 01:38:43;;;;;;;;;;;;;;;6.19;100.00;100611.19;5090046;28;19924;-74
2021/11/08 01:41:09;;;;;;;;;;;;;;;6.21;100.00;100616.47;5090633;28;20458;-73
2021/11/08 01:43:36;;;;;;;;;;;;;;;6.21;100.00;100613.75;5090502;28;20334;-74
2021/11/08 01:46:05;;;;;;;;;;;;;;;6.23;100.00;100616.34;5090621;28;19955;-73
2021/11/08 01:48:31;;;;;;;;;;;;;;;6.20;100.00;100618.31;5090814;28;19938;-74
2021/11/08 01:50:58;;;;;;;;;;;;;;;6.20;100.00;100612.91;5090578;28;20515;-73
2021/11/08 01:53:24;;;;;;;;;;;;;;;6.20;100.00;100623.69;5090725;28;19956;-74
2021/11/08 01:55:51;;;;;;;;;;;;;;;6.19;100.00;100624.66;5090720;28;19928;-74
2021/11/08 01:58:18;;;;;;;;;;;;;;;6.15;100.00;100617.72;5090667;28;20019;-74
2021/11/08 02:00:45;;;;;;;;;;;;;;;6.16;100.00;100629.38;5093093;28;20022;-74
2021/11/08 02:03:12;;;;;;;;;;;;;;;6.16;100.00;100621.28;5090278;28;20034;-73
2021/11/08 02:05:39;;;;;;;;;;;;;;;6.16;100.00;100627.56;5090722;28;20022;-74
2021/11/08 02:08:05;;;;;;;;;;;;;;;6.17;100.00;100639.19;5090583;28;20300;-74
2021/11/08 02:10:32;;;;;;;;;;;;;;;6.17;100.00;100632.00;5090368;28;20019;-74
2021/11/08 02:12:58;;;;;;;;;;;;;;;6.19;100.00;100635.44;5090412;28;19977;-74
2021/11/08 02:15:24;;;;;;;;;;;;;;;6.22;100.00;100636.22;5090508;28;20002;-73
2021/11/08 02:17:52;;;;;;;;;;;;;;;6.23;100.00;100635.22;5090605;28;20019;-73
2021/11/08 02:20:20;;;;;;;;;;;;;;;6.22;100.00;100630.81;5089864;28;19924;-73
2021/11/08 02:22:49;;;;;;;;;;;;;;;6.22;100.00;100636.22;5090422;28;20362;-74
2021/11/08 02:25:16;;;;;;;;;;;;;;;6.22;100.00;100641.59;5088988;28;20060;-73
2021/11/08 02:27:43;;;;;;;;;;;;;;;6.22;100.00;100642.47;5090516;28;20042;-73
2021/11/08 02:30:11;;;;;;;;;;;;;;;6.22;100.00;100642.47;5088821;28;19931;-74
2021/11/08 02:32:37;;;;;;;;;;;;;;;6.24;100.00;100650.44;5090428;28;19928;-73
2021/11/08 02:35:05;;;;;;;;;;;;;;;6.27;100.00;100650.28;5090413;28;19932;-74
2021/11/08 02:37:33;;;;;;;;;;;;;;;6.26;100.00;100654.78;5090020;28;20398;-74
2021/11/08 02:40:00;;;;;;;;;;;;;;;6.26;100.00;100652.06;5090590;28;20484;-74
2021/11/08 02:42:27;;;;;;;;;;;;;;;6.28;100.00;100651.97;5093782;28;19931;-71
2021/11/08 02:44:54;;;;;;;;;;;;;;;6.28;100.00;100666.34;5093900;28;20361;-74
2021/11/08 02:47:21;;;;;;;;;;;;;;;6.28;100.00;100663.66;5093826;28;19924;-74
2021/11/08 02:49:50;;;;;;;;;;;;;;;6.29;100.00;100670.75;5093558;28;19927;-74
2021/11/08 02:52:19;;;;;;;;;;;;;;;6.30;100.00;100677.03;5093784;28;20007;-74
2021/11/08 02:54:49;;;;;;;;;;;;;;;6.33;100.00;100671.41;5093590;28;20297;-74
2021/11/08 02:57:15;;;;;;;;;;;;;;;6.35;100.00;100675.75;5093348;28;20416;-74
2021/11/08 02:59:41;;;;;;;;;;;;;;;6.37;100.00;100678.34;5093106;28;19971;-74
2021/11/08 03:02:09;;;;;;;;;;;;;;;6.38;100.00;100679.22;5093470;28;20022;-73
2021/11/08 03:04:39;;;;;;;;;;;;;;;6.38;100.00;100684.63;5093315;28;19928;-74
2021/11/08 03:07:05;;;;;;;;;;;;;;;6.38;100.00;100680.09;5093422;28;19932;-74
2021/11/08 03:09:33;;;;;;;;;;;;;;;6.39;100.00;100680.94;5093325;28;20278;-73
2021/11/08 03:12:06;;;;;;;;;;;;;;;6.39;100.00;100687.22;5091843;28;19924;-74
2021/11/08 03:14:35;;;;;;;;;;;;;;;6.39;100.00;100698.00;5092994;28;20278;-73
2021/11/08 03:17:02;;;;;;;;;;;;;;;6.41;100.00;100698.75;5093101;28;19928;-74
2021/11/08 03:19:32;;;;;;;;;;;;;;;6.44;100.00;100703.09;5093116;28;20396;-73
2021/11/08 03:22:00;;;;;;;;;;;;;;;6.43;100.00;100701.38;5093021;28;20386;-74
2021/11/08 03:24:38;;;;;;;;;;;;;;;6.44;100.00;100697.69;5092935;28;19928;-73
2021/11/08 03:27:08;;;;;;;;;;;;;;;6.44;100.00;100708.47;5091734;28;20300;-74
2021/11/08 03:29:35;;;;;;;;;;;;;;;6.46;100.00;100711.97;5092703;28;19924;-73
2021/11/08 03:32:01;;;;;;;;;;;;;;;6.46;100.00;100710.13;5092855;28;19964;-74
2021/11/08 03:34:29;;;;;;;;;;;;;;;6.46;100.00;100712.81;5092593;28;20019;-73
2021/11/08 03:36:56;;;;;;;;;;;;;;;6.47;100.00;100711.84;5092809;28;19930;-74
2021/11/08 03:39:23;;;;;;;;;;;;;;;6.48;100.00;100715.41;5092608;28;20389;-73
2021/11/08 03:41:50;;;;;;;;;;;;;;;6.47;100.00;100717.25;5092584;28;19924;-73
2021/11/08 03:44:17;;;;;;;;;;;;;;;6.51;100.00;100726.00;5092591;28;19928;-73
2021/11/08 03:46:44;;;;;;;;;;;;;;;6.51;100.00;100734.97;5092294;28;19924;-73
2021/11/08 03:49:10;;;;;;;;;;;;;;;6.51;100.00;100729.56;5091508;28;19924;-74
2021/11/08 03:51:37;;;;;;;;;;;;;;;6.53;100.00;100726.75;5091123;28;20035;-73
2021/11/08 03:54:06;;;;;;;;;;;;;;;6.52;100.00;100742.09;5091295;28;19928;-73
2021/11/08 03:56:33;;;;;;;;;;;;;;;6.53;100.00;100742.94;5092454;28;20027;-73
2021/11/08 03:59:00;;;;;;;;;;;;;;;6.53;100.00;100743.84;5092294;28;19963;-73
2021/11/08 04:01:30;;;;;;;;;;;;;;;6.53;100.00;100746.53;5094686;28;19935;-73
2021/11/08 04:03:56;;;;;;;;;;;;;;;6.56;100.00;100748.16;5094070;28;19934;-74
2021/11/08 04:06:22;;;;;;;;;;;;;;;6.58;100.00;100762.41;5093051;28;20022;-74
2021/11/08 04:08:49;;;;;;;;;;;;;;;6.59;100.00;100761.44;5091952;28;19924;-74
2021/11/08 04:11:15;;;;;;;;;;;;;;;6.60;100.00;100759.59;5091845;28;19956;-73
2021/11/08 04:13:42;;;;;;;;;;;;;;;6.59;100.00;100758.75;5092053;28;19960;-73
2021/11/08 04:16:12;;;;;;;;;;;;;;;6.60;100.00;100767.69;5092008;28;19969;-73
2021/11/08 04:18:45;;;;;;;;;;;;;;;6.62;100.00;100763.09;5091858;28;20109;-73
2021/11/08 04:21:12;;;;;;;;;;;;;;;6.63;100.00;100770.22;5091599;28;19928;-74
2021/11/08 04:23:38;;;;;;;;;;;;;;;6.62;100.00;100769.34;5091615;28;19946;-74
2021/11/08 04:26:06;;;;;;;;;;;;;;;6.64;100.00;100771.94;5091564;28;20333;-74
2021/11/08 04:28:34;;;;;;;;;;;;;;;6.65;100.00;100770.97;5091901;28;20358;-74
2021/11/08 04:31:01;;;;;;;;;;;;;;;6.67;100.00;100779.84;5090460;28;19932;-74
2021/11/08 04:33:33;;;;;;;;;;;;;;;6.68;100.00;100781.56;5091608;28;19963;-74
2021/11/08 04:36:27;;;;;;;;;;;;;;;6.68;100.00;100777.03;5091752;28;19924;-74
2021/11/08 04:39:07;;;;;;;;;;;;;;;6.73;100.00;100783.97;5091429;28;19925;-74
2021/11/08 04:41:41;;;;;;;;;;;;;;;6.73;100.00;100795.63;5090912;28;20024;-73
2021/11/08 04:44:21;;;;;;;;;;;;;;;6.74;100.00;100781.16;5091209;28;19929;-73
2021/11/08 04:49:41;;;;;;;;;;;;;;;6.77;100.00;100789.06;5092694;28;20435;-73
2021/11/08 04:52:24;;;;;;;;;;;;;;;6.79;100.00;100797.94;5100360;28;19931;-72
2021/11/08 04:54:58;;;;;;;;;;;;;;;6.80;100.00;100791.59;5111430;28;19932;-73
2021/11/08 05:22:55;;;;;;;;;;;;;;;6.92;100.00;100822.31;5070581;28;20436;-72
2021/11/08 05:27:49;;;;;;;;;;;;;;;6.92;100.00;100834.91;5070773;28;19982;-74
2021/11/08 05:28:30;;;;;;;;;;;;;;;6.93;100.00;100834.81;5070159;28;19932;-73
2021/11/08 05:30:56;;;;;;;;;;;;;;;6.95;100.00;100837.41;5053157;28;20369;-71
2021/11/08 05:33:23;;;;;;;;;;;;;;;6.95;100.00;100834.72;5056248;28;20019;-71
2021/11/08 05:35:49;;;;;;;;;;;;;;;6.96;100.00;100847.25;5035453;28;19970;-73
2021/11/08 05:38:15;;;;;;;;;;;;;;;6.95;100.00;100841.00;5070008;28;19963;-73
2021/11/08 05:40:43;;;;;;;;;;;;;;;6.96;100.00;100849.94;5070382;28;20035;-74
2021/11/08 05:43:09;;;;;;;;;;;;;;;6.97;100.00;100859.78;5070426;28;20355;-73
2021/11/08 05:45:37;;;;;;;;;;;;;;;6.98;100.00;100861.53;5069504;28;19963;-73
2021/11/08 05:48:05;;;;;;;;;;;;;;;7.01;100.00;100861.31;5051222;28;19974;-73
2021/11/08 05:50:32;;;;;;;;;;;;;;;7.02;100.00;100863.06;5050127;28;19924;-73
2021/11/08 05:52:58;;;;;;;;;;;;;;;7.01;100.00;100866.72;5050238;28;19991;-73
2021/11/08 05:55:31;;;;;;;;;;;;;;;7.02;100.00;100869.31;5049943;28;20111;-74
2021/11/08 05:58:09;;;;;;;;;;;;;;;7.02;100.00;100874.72;5067756;28;20375;-74
2021/11/08 06:01:33;;;;;;;;;;;;;;;7.03;100.00;100881.00;5069796;28;19939;-74
2021/11/08 06:50:13;;;;;;;;;;;;;;;7.22;100.00;100961.69;5073345;28;19925;-73
2021/11/08 06:52:40;;;;;;;;;;;;;;;7.23;100.00;100967.94;5072773;28;19950;-73
2021/11/08 06:55:07;;;;;;;;;;;;;;;7.26;100.00;100978.56;5060654;28;19939;-73
2021/11/08 06:57:43;;;;;;;;;;;;;;;7.27;100.00;100980.28;5053073;28;20027;-72
2021/11/08 07:00:10;;;;;;;;;;;;;;;7.29;100.00;100978.34;5053025;28;19932;-73
2021/11/08 07:02:38;;;;;;;;;;;;;;;7.36;100.00;100985.09;5052985;28;19964;-72
2021/11/08 07:05:04;;;;;;;;;;;;;;;7.37;100.00;100994.94;5052413;28;20019;-72
2021/11/08 07:07:31;;;;;;;;;;;;;;;7.34;100.00;101000.53;5072241;28;19924;-72
2021/11/08 07:09:57;;;;;;;;;;;;;;;7.32;100.00;100997.06;5056586;28;20360;-72
2021/11/08 07:12:23;;;;;;;;;;;;;;;7.29;100.00;100998.13;5062452;28;20015;-73
2021/11/08 07:14:50;;;;;;;;;;;;;;;7.28;100.00;101009.91;5055365;28;19959;-73
2021/11/08 07:17:16;;;;;;;;;;;;;;;7.27;100.00;101010.88;5052807;28;19968;-73
2021/11/08 07:19:43;;;;;;;;;;;;;;;7.27;100.00;101009.97;5061710;28;19956;-72
2021/11/08 07:22:10;;;;;;;;;;;;;;;7.27;100.00;101004.56;5072914;28;20451;-72
2021/11/08 07:24:37;;;;;;;;;;;;;;;7.28;100.00;101014.41;5066359;28;20022;-72
2021/11/08 07:27:03;;;;;;;;;;;;;;;7.30;100.00;101018.75;5053055;28;20425;-73
2021/11/08 07:29:29;;;;;;;;;;;;;;;7.36;100.00;101021.09;5058302;28;20350;-72
2021/11/08 07:31:57;;;;;;;;;;;;;;;7.37;100.00;101030.03;5053916;28;19937;-73
2021/11/08 07:34:24;;;;;;;;;;;;;;;7.36;100.00;101022.91;5035122;28;19951;-73
2021/11/08 07:36:52;;;;;;;;;;;;;;;7.36;100.00;101023.78;5052427;28;19960;-73
2021/11/08 07:39:19;;;;;;;;;;;;;;;7.37;100.00;101030.03;5058293;28;20019;-73
2021/11/08 07:41:46;;;;;;;;;;;;;;;7.35;100.00;101029.28;5040301;28;20090;-73
2021/11/08 07:44:14;;;;;;;;;;;;;;;7.34;100.00;101041.91;5052149;28;20030;-73
2021/11/08 07:46:40;;;;;;;;;;;;;;;7.34;100.00;101030.25;5052142;28;20357;-73
2021/11/08 07:49:06;;;;;;;;;;;;;;;7.37;100.00;101035.44;5044791;28;20019;-73
2021/11/08 07:51:33;;;;;;;;;;;;;;;7.37;100.00;101039.00;5052425;28;20652;-72
2021/11/08 07:54:00;;;;;;;;;;;;;;;7.38;100.00;101042.59;5034197;28;19925;-72
2021/11/08 07:56:27;;;;;;;;;;;;;;;7.36;100.00;101050.78;5052097;28;19975;-73
2021/11/08 07:58:53;;;;;;;;;;;;;;;7.40;100.00;101051.44;5056459;28;20024;-73
2021/11/08 08:01:19;;;;;;;;;;;;;;;7.47;100.00;101055.53;5051968;28;19931;-73
2021/11/08 08:03:47;;;;;;;;;;;;;;;7.50;100.00;101060.72;5048823;28;20023;-73
2021/11/08 08:06:14;;;;;;;;;;;;;;;7.57;100.00;101054.94;5062237;28;19930;-73
2021/11/08 08:08:41;;;;;;;;;;;;;;;7.59;100.00;101059.28;5046482;28;20019;-73
2021/11/08 08:11:09;;;;;;;;;;;;;;;7.61;100.00;101051.06;5047586;28;20372;-72
2021/11/08 08:13:37;;;;;;;;;;;;;;;7.63;100.00;101057.22;5051180;28;19928;-73
2021/11/08 08:16:06;;;;;;;;;;;;;;;7.63;100.00;101068.03;5052062;28;19925;-73
2021/11/08 08:18:33;;;;;;;;;;;;;;;7.62;100.00;101071.72;5051962;28;20023;-73
2021/11/08 08:21:00;;;;;;;;;;;;;;;7.64;100.00;101058.97;5064496;28;19963;-72
2021/11/08 08:23:26;;;;;;;;;;;;;;;7.61;100.00;101075.38;5052546;28;19972;-73
2021/11/08 08:25:52;;;;;;;;;;;;;;;7.63;100.00;101070.75;5062221;28;19970;-73
2021/11/08 08:28:20;;;;;;;;;;;;;;;7.64;100.00;101075.19;5051428;28;20278;-72
2021/11/08 08:30:47;;;;;;;;;;;;;;;7.64;100.00;101086.00;5051991;28;19929;-73
2021/11/08 08:33:13;;;;;;;;;;;;;;;7.64;100.00;101075.19;5069470;28;20419;-73
2021/11/08 08:35:40;;;;;;;;;;;;;;;7.61;100.00;101087.06;5058305;28;19960;-73
2021/11/08 08:38:07;;;;;;;;;;;;;;;7.65;100.00;101082.34;5050168;28;20393;-73
2021/11/08 08:40:33;;;;;;;;;;;;;;;7.69;100.00;101095.53;5052233;28;20389;-73
2021/11/08 08:43:00;;;;;;;;;;;;;;;7.70;100.00;101091.03;5050716;28;19975;-72
2021/11/08 08:45:27;;;;;;;;;;;;;;;7.67;100.00;101093.91;5051599;28;19933;-73
2021/11/08 08:47:54;;;;;;;;;;;;;;;7.68;100.00;101098.34;5067097;28;19928;-73
2021/11/08 08:50:20;;;;;;;;;;;;;;;7.73;100.00;101109.72;5063116;28;20314;-73
2021/11/08 08:52:46;;;;;;;;;;;;;;;7.73;100.00;101107.03;5051004;28;19968;-73
2021/11/08 08:55:13;;;;;;;;;;;;;;;7.68;100.00;101110.03;5052313;28;20270;-73
2021/11/08 08:57:40;;;;;;;;;;;;;;;7.71;100.00;101117.94;5064665;28;19959;-72
2021/11/08 09:00:08;;;;;;;;;;;;;;;7.75;100.00;101115.03;5070692;28;19932;-73
2021/11/08 09:02:36;;;;;;;;;;;;;;;7.77;100.00;101122.09;5061451;28;19967;-73
2021/11/08 09:05:03;;;;;;;;;;;;;;;7.90;100.00;101122.19;5055231;28;19928;-72
2021/11/08 09:07:30;;;;;;;;;;;;;;;7.89;100.00;101125.84;5060138;28;19964;-72
2021/11/08 09:09:56;;;;;;;;;;;;;;;7.86;100.00;101118.81;5057485;28;19971;-72
2021/11/08 09:12:23;;;;;;;;;;;;;;;7.85;100.00;101124.31;5038714;28;19932;-72
2021/11/08 09:14:49;;;;;;;;;;;;;;;7.90;100.00;101127.59;5059746;28;19928;-72
2021/11/08 09:17:15;;;;;;;;;;;;;;;8.02;100.00;101121.41;5054284;28;20407;-73
2021/11/08 09:19:43;;;;;;;;;;;;;;;8.06;100.00;101124.78;5050042;28;19976;-73
2021/11/08 09:22:13;;;;;;;;;;;;;;;8.14;100.00;101125.16;5050677;28;19963;-73
2021/11/08 09:24:39;;;;;;;;;;;;;;;8.25;100.00;101131.69;5052301;28;19928;-72
2021/11/08 09:27:06;;;;;;;;;;;;;;;8.35;100.00;101135.53;5051317;28;20386;-73
2021/11/08 09:29:32;;;;;;;;;;;;;;;8.35;100.00;101139.13;5050287;28;20017;-72
2021/11/08 09:31:59;;;;;;;;;;;;;;;8.28;100.00;101134.19;5050223;28;19975;-73
2021/11/08 09:34:25;;;;;;;;;;;;;;;8.28;100.00;101135.06;5050585;28;19925;-72
2021/11/08 09:36:57;;;;;;;;;;;;;;;8.27;100.00;101146.88;5031929;28;19939;-72
2021/11/08 09:39:26;;;;;;;;;;;;;;;8.25;100.00;101146.09;5050482;28;19925;-72
2021/11/08 09:41:54;;;;;;;;;;;;;;;8.25;100.00;101151.50;5032344;28;19931;-73
2021/11/08 09:44:21;;;;;;;;;;;;;;;8.23;100.00;101149.84;5048450;28;19925;-72
2021/11/08 09:46:50;;;;;;;;;;;;;;;8.22;100.00;101151.69;5031706;28;19987;-72
2021/11/08 09:49:16;;;;;;;;;;;;;;;8.23;100.00;101157.97;5044246;28;20002;-72
2021/11/08 09:51:44;;;;;;;;;;;;;;;8.16;100.00;101163.78;5074487;28;19928;-72
2021/11/08 09:54:13;;;;;;;;;;;;;;;8.19;100.00;101168.09;5070270;28;20046;-72
2021/11/08 09:56:39;;;;;;;;;;;;;;;8.16;100.00;101166.50;5054111;28;20350;-72
2021/11/08 09:59:06;;;;;;;;;;;;;;;8.16;100.00;101168.31;5068138;28;19955;-72
2021/11/08 10:01:34;;;;;;;;;;;;;;;8.15;100.00;101175.56;5066198;28;19925;-72
2021/11/08 10:04:00;;;;;;;;;;;;;;;8.17;100.00;101178.16;5054098;28;19925;-72
2021/11/08 10:06:28;;;;;;;;;;;;;;;8.24;100.00;101181.34;5054174;28;20455;-72
2021/11/08 10:08:55;;;;;;;;;;;;;;;8.21;100.00;101174.28;5067838;28;20285;-73
2021/11/08 10:11:22;;;;;;;;;;;;;;;8.21;100.00;101172.44;5051008;28;20399;-73
2021/11/08 10:13:49;;;;;;;;;;;;;;;8.22;100.00;101178.75;5053831;28;19925;-73
2021/11/08 10:16:18;;;;;;;;;;;;;;;8.24;100.00;101184.06;5059842;28;19963;-73
2021/11/08 10:18:46;;;;;;;;;;;;;;;8.25;100.00;101183.94;5073355;28;19932;-72
2021/11/08 10:21:13;;;;;;;;;;;;;;;8.27;100.00;101189.25;5067862;28;19929;-73
2021/11/08 10:23:41;;;;;;;;;;;;;;;8.27;100.00;101186.53;5036374;28;19956;-73
2021/11/08 10:26:08;;;;;;;;;;;;;;;8.29;100.00;101181.94;5069465;28;19924;-73
2021/11/08 10:28:36;;;;;;;;;;;;;;;8.34;100.00;101190.63;5073452;28;19979;-72
2021/11/08 10:31:07;;;;;;;;;;;;;;;8.35;100.00;101192.31;5054366;28;19964;-73
2021/11/08 10:33:34;;;;;;;;;;;;;;;8.30;100.00;101187.22;5053555;28;20020;-72
2021/11/08 10:36:04;;;;;;;;;;;;;;;8.36;100.00;101194.06;5047091;28;19959;-72
2021/11/08 10:38:32;;;;;;;;;;;;;;;8.35;100.00;101190.50;5053508;28;20378;-72
2021/11/08 10:41:00;;;;;;;;;;;;;;;8.39;100.00;101196.56;5053246;28;19929;-72
2021/11/08 10:43:27;;;;;;;;;;;;;;;8.43;100.00;101203.56;5059554;28;19947;-72
2021/11/08 10:45:56;;;;;;;;;;;;;;;8.42;100.00;101204.50;5061994;28;19968;-72
2021/11/08 10:48:23;;;;;;;;;;;;;;;8.41;100.00;101202.75;5052985;28;19966;-72
2021/11/08 10:50:50;;;;;;;;;;;;;;;8.43;100.00;101203.56;5055228;28;20014;-72
2021/11/08 10:53:17;;;;;;;;;;;;;;;8.39;100.00;101193.88;5054240;28;19967;-73
2021/11/08 10:55:47;;;;;;;;;;;;;;;8.39;100.00;101201.97;5073003;28;19928;-72
2021/11/08 10:58:15;;;;;;;;;;;;;;;8.36;100.00;101202.19;5065245;28;19932;-72
2021/11/08 11:00:49;;;;;;;;;;;;;;;8.36;100.00;101196.78;5055473;28;20336;-72
2021/11/08 11:03:18;;;;;;;;;;;;;;;8.30;100.00;101202.59;5057277;28;20389;-72
2021/11/08 11:05:45;;;;;;;;;;;;;;;8.29;100.00;101211.69;5052529;28;19925;-72
2021/11/08 11:08:15;;;;;;;;;;;;;;;8.43;100.00;101217.06;5052087;28;20300;-72
2021/11/08 11:10:43;;;;;;;;;;;;;;;8.40;100.00;101217.25;5069533;28;19925;-72
2021/11/08 11:13:16;;;;;;;;;;;;;;;8.45;100.00;101220.56;5063650;28;19967;-73
2021/11/08 11:15:43;;;;;;;;;;;;;;;8.43;100.00;101213.47;5057639;28;19970;-72
2021/11/08 11:18:11;;;;;;;;;;;;;;;8.49;100.00;101216.69;5052559;28;20043;-72
2021/11/08 11:20:42;;;;;;;;;;;;;;;8.50;100.00;101215.72;5053138;28;19940;-73
2021/11/08 11:23:13;;;;;;;;;;;;;;;8.72;100.00;101208.91;5053066;28;19983;-72
2021/11/08 11:25:41;;;;;;;;;;;;;;;8.89;100.00;101207.81;5052065;28;20389;-72
2021/11/08 11:28:09;;;;;;;;;;;;;;;9.08;100.00;101199.31;5055995;28;19924;-72
2021/11/08 11:30:37;;;;;;;;;;;;;;;9.21;100.00;101202.06;5062158;28;19970;-72
2021/11/08 11:33:05;;;;;;;;;;;;;;;9.38;100.00;101204.50;5052357;28;20007;-72
2021/11/08 11:35:33;;;;;;;;;;;;;;;9.40;100.00;101198.09;5052586;28;19928;-72
2021/11/08 11:38:02;;;;;;;;;;;;;;;9.41;100.00;101205.22;5062505;28;20015;-73
2021/11/08 11:40:29;;;;;;;;;;;;;;;9.46;100.00;101205.78;5072277;28;20024;-71
2021/11/08 11:42:58;;;;;;;;;;;;;;;9.37;100.00;101204.59;5053299;28;20460;-72
2021/11/08 11:45:24;;;;;;;;;;;;;;;9.31;100.00;101197.75;5061602;28;19933;-72
2021/11/08 11:47:56;;;;;;;;;;;;;;;9.27;100.00;101200.78;5052229;28;20015;-72
2021/11/08 11:50:23;;;;;;;;;;;;;;;9.19;100.00;101204.88;5055538;28;19940;-73
2021/11/08 11:52:49;;;;;;;;;;;;;;;9.17;100.00;101198.69;5051691;28;20463;-73
2021/11/08 11:55:17;;;;;;;;;;;;;;;9.11;100.00;101204.50;5051744;28;19964;-72
2021/11/08 11:57:44;;;;;;;;;;;;;;;9.07;100.00;101205.69;5051766;28;19960;-72
2021/11/08 12:00:10;;;;;;;;;;;;;;;9.03;100.00;101205.06;5050408;28;20737;-72
2021/11/08 12:02:38;;;;;;;;;;;;;;;8.97;100.00;101207.31;5059235;28;20266;-72
2021/11/08 12:05:05;;;;;;;;;;;;;;;8.94;100.00;101208.38;5055966;28;20032;-72
2021/11/08 12:07:32;;;;;;;;;;;;;;;8.95;100.00;101214.66;5051349;28;19964;-73
2021/11/08 12:10:00;;;;;;;;;;;;;;;8.97;100.00;101210.00;5056740;28;19925;-72
2021/11/08 12:12:28;;;;;;;;;;;;;;;8.95;100.00;101215.53;5050723;28;19975;-72
2021/11/08 12:15:05;;;;;;;;;;;;;;;8.99;100.00;101213.47;5051895;28;19971;-72
2021/11/08 12:17:35;;;;;;;;;;;;;;;9.00;100.00;101204.38;5051209;28;19932;-73
2021/11/08 12:20:04;;;;;;;;;;;;;;;9.01;100.00;101209.69;5051665;28;19994;-72
2021/11/08 12:22:32;;;;;;;;;;;;;;;9.04;100.00;101205.91;5051859;28;19982;-72
2021/11/08 12:25:00;;;;;;;;;;;;;;;9.04;100.00;101209.47;5051511;28;19929;-73
2021/11/08 12:27:36;;;;;;;;;;;;;;;9.03;100.00;101199.63;5033782;28;19929;-72
2021/11/08 12:30:08;;;;;;;;;;;;;;;8.99;100.00;101198.09;5039989;28;19933;-73
2021/11/08 12:32:40;;;;;;;;;;;;;;;8.95;100.00;101206.53;5057514;28;19964;-72
2021/11/08 12:35:13;;;;;;;;;;;;;;;8.91;100.00;101196.88;5054533;28;20002;-72
2021/11/08 12:37:39;;;;;;;;;;;;;;;8.91;100.00;101205.00;5063142;28;19964;-72
2021/11/08 12:40:06;;;;;;;;;;;;;;;8.92;100.00;101221.13;5054681;28;20474;-72
2021/11/08 12:42:39;;;;;;;;;;;;;;;8.90;100.00;101214.97;5069090;28;19979;-72
2021/11/08 12:45:09;;;;;;;;;;;;;;;8.90;100.00;101216.78;5051947;28;19925;-72
2021/11/08 12:47:36;;;;;;;;;;;;;;;8.91;100.00;101219.38;5058159;28;19968;-73
2021/11/08 12:50:03;;;;;;;;;;;;;;;8.93;100.00;101219.31;5063668;28;19929;-72
2021/11/08 12:52:31;;;;;;;;;;;;;;;8.98;100.00;101225.25;5057176;28;19928;-73
2021/11/08 12:55:04;;;;;;;;;;;;;;;8.99;100.00;101216.16;5050597;28;19929;-72
2021/11/08 12:57:31;;;;;;;;;;;;;;;8.98;100.00;101225.25;5050825;28;19968;-72
2021/11/08 13:00:00;;;;;;;;;;;;;;;8.96;100.00;101235.34;5050183;28;19983;-72
2021/11/08 13:02:29;;;;;;;;;;;;;;;8.93;100.00;101225.59;5056089;28;19962;-72
2021/11/08 13:04:56;;;;;;;;;;;;;;;8.88;100.00;101228.59;5052498;28;19975;-71
2021/11/08 13:07:23;;;;;;;;;;;;;;;8.86;100.00;101232.38;5067127;28;20415;-72
2021/11/08 13:09:51;;;;;;;;;;;;;;;8.81;100.00;101226.41;5060031;28;19951;-73
2021/11/08 13:12:18;;;;;;;;;;;;;;;8.79;100.00;101218.38;5062109;28;19983;-72
2021/11/08 13:14:49;;;;;;;;;;;;;;;8.80;100.00;101222.81;5050722;28;20026;-73
2021/11/08 13:17:19;;;;;;;;;;;;;;;8.83;100.00;101221.72;5058565;28;19925;-71
2021/11/08 13:19:47;;;;;;;;;;;;;;;8.79;100.00;101225.63;5058597;28;20336;-71
2021/11/08 13:22:17;;;;;;;;;;;;;;;8.79;100.00;101231.03;5063521;28;19925;-72
2021/11/08 13:24:44;;;;;;;;;;;;;;;8.76;100.00;101225.84;5030472;28;19925;-73
2021/11/08 13:27:10;;;;;;;;;;;;;;;8.76;100.00;101231.25;5040887;28;19982;-72
2021/11/08 13:29:37;;;;;;;;;;;;;;;8.74;100.00;101233.16;5068413;28;20015;-72
2021/11/08 13:32:08;;;;;;;;;;;;;;;8.75;100.00;101232.22;5065789;28;19928;-72
2021/11/08 13:34:35;;;;;;;;;;;;;;;8.77;100.00;101228.44;5051173;28;20460;-72
2021/11/08 13:37:02;;;;;;;;;;;;;;;8.80;100.00;101232.78;5069623;28;19967;-73
2021/11/08 13:39:28;;;;;;;;;;;;;;;8.84;100.00;101235.16;5067388;28;20401;-73
2021/11/08 13:41:54;;;;;;;;;;;;;;;8.88;100.00;101236.72;5056615;28;19925;-73
2021/11/08 13:44:21;;;;;;;;;;;;;;;8.91;100.00;101234.78;5055648;28;20027;-73
2021/11/08 13:46:48;;;;;;;;;;;;;;;8.94;100.00;101234.56;5070243;28;19964;-73
2021/11/08 13:49:16;;;;;;;;;;;;;;;8.98;100.00;101241.50;5068332;28;19933;-73
2021/11/08 13:51:47;;;;;;;;;;;;;;;8.99;100.00;101241.44;5055306;28;20336;-71
2021/11/08 13:54:14;;;;;;;;;;;;;;;9.00;100.00;101245.00;5063613;28;19928;-73